Terminal Aerodrome Forecast
Issued by NWS

Home | Current Version | Previous Version | Text Only | Print | Product List | Glossary On
Versions: 1 2 3 4 5 6 7 8 9 10 11 12 13 14 15 16 17 18 19 20 21 22
000
FTUS41 KPHI 282333
TAFMIV
TAF
KMIV 282333Z 2900/2924 18005KT P6SM FEW250
     FM290200 16004KT 5SM BR FEW250
     FM290900 19004KT 2SM BR SCT250
     FM291100 24007KT 5SM -SHRA BKN015
     FM291500 26011KT P6SM SCT050 SCT250
     FM291800 24010G17KT P6SM FEW150 SCT250=

USA.gov is the U.S. government's official web portal to all federal, state and local government web resources and services.